sensor_id;sensor_type;location;lat;lon;timestamp;P1;durP1;ratioP1;P2;durP2;ratioP2
46455;SDS011;64052;47.466;9.094;2022-12-07T00:01:56;25.25;;;14.73;;
46455;SDS011;64052;47.466;9.094;2022-12-07T00:06:57;21.15;;;14.27;;
46455;SDS011;64052;47.466;9.094;2022-12-07T00:11:59;23.88;;;13.60;;
46455;SDS011;64052;47.466;9.094;2022-12-07T00:17:00;22.17;;;13.40;;
46455;SDS011;64052;47.466;9.094;2022-12-07T00:22:02;20.95;;;12.57;;
46455;SDS011;64052;47.466;9.094;2022-12-07T00:27:03;24.08;;;14.38;;
46455;SDS011;64052;47.466;9.094;2022-12-07T00:32:04;23.25;;;15.25;;
46455;SDS011;64052;47.466;9.094;2022-12-07T00:37:06;21.65;;;13.75;;
46455;SDS011;64052;47.466;9.094;2022-12-07T00:42:08;20.75;;;13.38;;
46455;SDS011;64052;47.466;9.094;2022-12-07T00:47:09;20.50;;;13.00;;
46455;SDS011;64052;47.466;9.094;2022-12-07T00:52:11;22.23;;;12.70;;
46455;SDS011;64052;47.466;9.094;2022-12-07T00:57:12;19.23;;;13.45;;
46455;SDS011;64052;47.466;9.094;2022-12-07T01:02:13;22.42;;;14.52;;
46455;SDS011;64052;47.466;9.094;2022-12-07T01:07:15;22.67;;;14.73;;
46455;SDS011;64052;47.466;9.094;2022-12-07T01:12:16;19.67;;;13.30;;
46455;SDS011;64052;47.466;9.094;2022-12-07T01:17:18;17.90;;;12.00;;
46455;SDS011;64052;47.466;9.094;2022-12-07T01:22:19;15.45;;;12.30;;
46455;SDS011;64052;47.466;9.094;2022-12-07T01:27:21;19.67;;;11.98;;
46455;SDS011;64052;47.466;9.094;2022-12-07T01:32:22;18.15;;;12.48;;
46455;SDS011;64052;47.466;9.094;2022-12-07T01:37:24;22.40;;;12.27;;
46455;SDS011;64052;47.466;9.094;2022-12-07T01:42:25;20.10;;;13.38;;
46455;SDS011;64052;47.466;9.094;2022-12-07T01:47:27;19.48;;;11.60;;
46455;SDS011;64052;47.466;9.094;2022-12-07T01:52:30;15.82;;;11.55;;
46455;SDS011;64052;47.466;9.094;2022-12-07T01:57:35;21.38;;;14.10;;
46455;SDS011;64052;47.466;9.094;2022-12-07T02:02:43;18.83;;;11.85;;
46455;SDS011;64052;47.466;9.094;2022-12-07T02:07:49;20.85;;;12.38;;
46455;SDS011;64052;47.466;9.094;2022-12-07T02:12:55;19.38;;;12.65;;
46455;SDS011;64052;47.466;9.094;2022-12-07T02:18:01;23.83;;;14.50;;
46455;SDS011;64052;47.466;9.094;2022-12-07T02:34:09;22.02;;;14.35;;
46455;SDS011;64052;47.466;9.094;2022-12-07T02:39:34;20.67;;;13.02;;
46455;SDS011;64052;47.466;9.094;2022-12-07T02:44:43;23.67;;;14.43;;
46455;SDS011;64052;47.466;9.094;2022-12-07T02:49:47;26.10;;;14.60;;
46455;SDS011;64052;47.466;9.094;2022-12-07T02:54:50;25.48;;;14.70;;
46455;SDS011;64052;47.466;9.094;2022-12-07T03:10:28;21.25;;;14.35;;
46455;SDS011;64052;47.466;9.094;2022-12-07T03:15:45;24.13;;;14.88;;
46455;SDS011;64052;47.466;9.094;2022-12-07T03:20:51;26.27;;;16.45;;
46455;SDS011;64052;47.466;9.094;2022-12-07T03:25:57;27.17;;;16.08;;
46455;SDS011;64052;47.466;9.094;2022-12-07T03:31:10;26.48;;;15.68;;
46455;SDS011;64052;47.466;9.094;2022-12-07T03:36:24;30.67;;;17.75;;
46455;SDS011;64052;47.466;9.094;2022-12-07T03:41:32;30.60;;;17.38;;
46455;SDS011;64052;47.466;9.094;2022-12-07T03:47:26;24.88;;;15.85;;
46455;SDS011;64052;47.466;9.094;2022-12-07T03:57:29;30.70;;;17.92;;
46455;SDS011;64052;47.466;9.094;2022-12-07T04:02:34;28.27;;;15.57;;
46455;SDS011;64052;47.466;9.094;2022-12-07T04:07:36;27.13;;;17.38;;
46455;SDS011;64052;47.466;9.094;2022-12-07T04:12:38;27.25;;;17.63;;
46455;SDS011;64052;47.466;9.094;2022-12-07T04:17:40;25.63;;;15.90;;
46455;SDS011;64052;47.466;9.094;2022-12-07T04:22:41;26.45;;;15.65;;
46455;SDS011;64052;47.466;9.094;2022-12-07T04:27:43;27.63;;;17.48;;
46455;SDS011;64052;47.466;9.094;2022-12-07T04:32:44;25.98;;;15.57;;
46455;SDS011;64052;47.466;9.094;2022-12-07T04:37:46;27.20;;;15.55;;
46455;SDS011;64052;47.466;9.094;2022-12-07T04:42:47;26.35;;;15.95;;
46455;SDS011;64052;47.466;9.094;2022-12-07T04:47:49;26.23;;;15.45;;
46455;SDS011;64052;47.466;9.094;2022-12-07T04:52:50;27.30;;;15.63;;
46455;SDS011;64052;47.466;9.094;2022-12-07T04:57:52;26.40;;;14.65;;
46455;SDS011;64052;47.466;9.094;2022-12-07T05:02:53;28.42;;;16.17;;
46455;SDS011;64052;47.466;9.094;2022-12-07T05:07:55;25.42;;;15.05;;
46455;SDS011;64052;47.466;9.094;2022-12-07T05:12:56;28.58;;;16.20;;
46455;SDS011;64052;47.466;9.094;2022-12-07T05:17:58;26.35;;;15.27;;
46455;SDS011;64052;47.466;9.094;2022-12-07T05:22:59;27.67;;;16.65;;
46455;SDS011;64052;47.466;9.094;2022-12-07T05:28:01;31.00;;;17.70;;
46455;SDS011;64052;47.466;9.094;2022-12-07T05:33:02;25.45;;;13.90;;
46455;SDS011;64052;47.466;9.094;2022-12-07T05:38:04;26.70;;;15.70;;
46455;SDS011;64052;47.466;9.094;2022-12-07T05:43:06;24.08;;;14.93;;
46455;SDS011;64052;47.466;9.094;2022-12-07T05:48:07;27.58;;;16.52;;
46455;SDS011;64052;47.466;9.094;2022-12-07T05:53:08;26.90;;;15.18;;
46455;SDS011;64052;47.466;9.094;2022-12-07T05:58:10;23.98;;;13.95;;
46455;SDS011;64052;47.466;9.094;2022-12-07T06:08:19;26.27;;;17.77;;
46455;SDS011;64052;47.466;9.094;2022-12-07T06:13:21;26.52;;;16.90;;
46455;SDS011;64052;47.466;9.094;2022-12-07T06:18:23;22.30;;;14.23;;
46455;SDS011;64052;47.466;9.094;2022-12-07T06:23:24;25.48;;;15.00;;
46455;SDS011;64052;47.466;9.094;2022-12-07T06:28:26;21.10;;;14.82;;
46455;SDS011;64052;47.466;9.094;2022-12-07T06:33:28;23.95;;;15.48;;
46455;SDS011;64052;47.466;9.094;2022-12-07T06:38:30;24.25;;;14.45;;
46455;SDS011;64052;47.466;9.094;2022-12-07T06:43:31;24.23;;;15.23;;
46455;SDS011;64052;47.466;9.094;2022-12-07T06:48:33;25.05;;;16.45;;
46455;SDS011;64052;47.466;9.094;2022-12-07T06:53:35;25.02;;;15.43;;
46455;SDS011;64052;47.466;9.094;2022-12-07T06:58:37;30.00;;;17.42;;
46455;SDS011;64052;47.466;9.094;2022-12-07T07:03:39;28.50;;;17.23;;
46455;SDS011;64052;47.466;9.094;2022-12-07T07:08:41;28.58;;;19.10;;
46455;SDS011;64052;47.466;9.094;2022-12-07T07:13:43;25.42;;;16.60;;
46455;SDS011;64052;47.466;9.094;2022-12-07T07:18:45;25.42;;;14.88;;
46455;SDS011;64052;47.466;9.094;2022-12-07T07:23:47;26.92;;;15.90;;
46455;SDS011;64052;47.466;9.094;2022-12-07T07:28:49;24.67;;;14.98;;
46455;SDS011;64052;47.466;9.094;2022-12-07T07:33:50;23.58;;;13.80;;
46455;SDS011;64052;47.466;9.094;2022-12-07T07:38:52;27.50;;;15.77;;
46455;SDS011;64052;47.466;9.094;2022-12-07T07:43:53;26.58;;;15.73;;
46455;SDS011;64052;47.466;9.094;2022-12-07T07:48:55;26.00;;;15.32;;
46455;SDS011;64052;47.466;9.094;2022-12-07T07:53:57;25.58;;;15.70;;
46455;SDS011;64052;47.466;9.094;2022-12-07T07:58:58;25.38;;;16.27;;
46455;SDS011;64052;47.466;9.094;2022-12-07T08:04:00;26.90;;;16.15;;
46455;SDS011;64052;47.466;9.094;2022-12-07T08:09:02;23.73;;;15.10;;
46455;SDS011;64052;47.466;9.094;2022-12-07T08:14:04;29.17;;;16.20;;
46455;SDS011;64052;47.466;9.094;2022-12-07T08:19:05;25.95;;;15.30;;
46455;SDS011;64052;47.466;9.094;2022-12-07T08:24:07;29.73;;;15.65;;
46455;SDS011;64052;47.466;9.094;2022-12-07T08:29:09;24.38;;;13.55;;
46455;SDS011;64052;47.466;9.094;2022-12-07T08:34:11;28.17;;;16.48;;
46455;SDS011;64052;47.466;9.094;2022-12-07T08:39:13;30.80;;;16.58;;
46455;SDS011;64052;47.466;9.094;2022-12-07T08:44:33;28.13;;;17.53;;
46455;SDS011;64052;47.466;9.094;2022-12-07T08:49:41;27.33;;;16.70;;
46455;SDS011;64052;47.466;9.094;2022-12-07T08:54:47;25.98;;;13.52;;
46455;SDS011;64052;47.466;9.094;2022-12-07T08:59:50;28.08;;;16.00;;
46455;SDS011;64052;47.466;9.094;2022-12-07T09:04:51;29.52;;;17.80;;
46455;SDS011;64052;47.466;9.094;2022-12-07T09:09:53;27.05;;;15.13;;
46455;SDS011;64052;47.466;9.094;2022-12-07T09:14:55;28.52;;;16.45;;
46455;SDS011;64052;47.466;9.094;2022-12-07T12:42:53;21.05;;;12.80;;
46455;SDS011;64052;47.466;9.094;2022-12-07T13:03:26;22.20;;;13.50;;
46455;SDS011;64052;47.466;9.094;2022-12-07T13:08:30;19.20;;;12.73;;
46455;SDS011;64052;47.466;9.094;2022-12-07T13:13:35;27.38;;;15.18;;
46455;SDS011;64052;47.466;9.094;2022-12-07T13:18:37;19.40;;;11.50;;
46455;SDS011;64052;47.466;9.094;2022-12-07T13:28:48;16.98;;;11.57;;
46455;SDS011;64052;47.466;9.094;2022-12-07T13:33:52;19.35;;;12.40;;
46455;SDS011;64052;47.466;9.094;2022-12-07T13:44:01;18.83;;;11.80;;
46455;SDS011;64052;47.466;9.094;2022-12-07T13:49:15;18.27;;;12.05;;
46455;SDS011;64052;47.466;9.094;2022-12-07T13:54:19;14.82;;;10.30;;
46455;SDS011;64052;47.466;9.094;2022-12-07T13:59:22;16.35;;;10.20;;
46455;SDS011;64052;47.466;9.094;2022-12-07T14:04:35;15.43;;;10.68;;
46455;SDS011;64052;47.466;9.094;2022-12-07T14:09:38;15.48;;;9.13;;
46455;SDS011;64052;47.466;9.094;2022-12-07T14:14:40;16.00;;;11.20;;
46455;SDS011;64052;47.466;9.094;2022-12-07T14:19:53;18.23;;;11.23;;
46455;SDS011;64052;47.466;9.094;2022-12-07T14:25:20;43.50;;;26.27;;
46455;SDS011;64052;47.466;9.094;2022-12-07T14:30:31;26.33;;;17.35;;
46455;SDS011;64052;47.466;9.094;2022-12-07T14:35:35;55.75;;;27.17;;
46455;SDS011;64052;47.466;9.094;2022-12-07T14:40:38;34.63;;;20.35;;
46455;SDS011;64052;47.466;9.094;2022-12-07T14:45:40;18.65;;;11.77;;
46455;SDS011;64052;47.466;9.094;2022-12-07T15:35:22;18.25;;;11.98;;
46455;SDS011;64052;47.466;9.094;2022-12-07T15:40:23;15.60;;;11.02;;
46455;SDS011;64052;47.466;9.094;2022-12-07T15:45:25;17.20;;;11.63;;
46455;SDS011;64052;47.466;9.094;2022-12-07T15:50:27;22.08;;;14.35;;
46455;SDS011;64052;47.466;9.094;2022-12-07T16:06:23;17.00;;;10.77;;
46455;SDS011;64052;47.466;9.094;2022-12-07T16:22:12;14.80;;;9.10;;
46455;SDS011;64052;47.466;9.094;2022-12-07T16:43:46;15.07;;;10.23;;
46455;SDS011;64052;47.466;9.094;2022-12-07T16:53:57;15.05;;;10.05;;
46455;SDS011;64052;47.466;9.094;2022-12-07T17:10:13;11.95;;;8.20;;
46455;SDS011;64052;47.466;9.094;2022-12-07T17:15:15;13.38;;;9.13;;
46455;SDS011;64052;47.466;9.094;2022-12-07T17:20:18;13.13;;;9.23;;
46455;SDS011;64052;47.466;9.094;2022-12-07T17:25:20;16.10;;;9.23;;
46455;SDS011;64052;47.466;9.094;2022-12-07T17:46:36;13.05;;;8.30;;
46455;SDS011;64052;47.466;9.094;2022-12-07T17:51:39;11.95;;;9.52;;
46455;SDS011;64052;47.466;9.094;2022-12-07T18:07:48;12.90;;;9.85;;
46455;SDS011;64052;47.466;9.094;2022-12-07T18:12:52;14.93;;;10.90;;
46455;SDS011;64052;47.466;9.094;2022-12-07T18:17:55;17.02;;;11.65;;
46455;SDS011;64052;47.466;9.094;2022-12-07T18:22:58;14.88;;;9.52;;
46455;SDS011;64052;47.466;9.094;2022-12-07T18:28:02;14.43;;;11.05;;
46455;SDS011;64052;47.466;9.094;2022-12-07T18:33:08;14.65;;;10.50;;
46455;SDS011;64052;47.466;9.094;2022-12-07T18:38:13;14.90;;;10.57;;
46455;SDS011;64052;47.466;9.094;2022-12-07T18:43:22;17.50;;;11.20;;
46455;SDS011;64052;47.466;9.094;2022-12-07T18:48:26;15.55;;;10.25;;
46455;SDS011;64052;47.466;9.094;2022-12-07T18:53:30;15.65;;;9.63;;
46455;SDS011;64052;47.466;9.094;2022-12-07T18:58:34;16.75;;;10.75;;
46455;SDS011;64052;47.466;9.094;2022-12-07T19:03:36;17.63;;;11.15;;
46455;SDS011;64052;47.466;9.094;2022-12-07T19:08:37;17.30;;;9.65;;
46455;SDS011;64052;47.466;9.094;2022-12-07T19:13:39;19.02;;;11.75;;
46455;SDS011;64052;47.466;9.094;2022-12-07T19:18:40;15.93;;;9.63;;
46455;SDS011;64052;47.466;9.094;2022-12-07T19:23:49;11.67;;;8.73;;
46455;SDS011;64052;47.466;9.094;2022-12-07T19:28:51;12.45;;;9.40;;
46455;SDS011;64052;47.466;9.094;2022-12-07T19:33:53;13.40;;;8.95;;
46455;SDS011;64052;47.466;9.094;2022-12-07T19:38:54;15.32;;;11.10;;
46455;SDS011;64052;47.466;9.094;2022-12-07T19:43:56;13.20;;;9.32;;
46455;SDS011;64052;47.466;9.094;2022-12-07T19:48:59;13.93;;;9.05;;
46455;SDS011;64052;47.466;9.094;2022-12-07T19:54:01;14.82;;;9.65;;
46455;SDS011;64052;47.466;9.094;2022-12-07T19:59:03;20.08;;;11.13;;
46455;SDS011;64052;47.466;9.094;2022-12-07T20:04:05;16.70;;;10.32;;
46455;SDS011;64052;47.466;9.094;2022-12-07T20:09:11;17.63;;;10.52;;
46455;SDS011;64052;47.466;9.094;2022-12-07T20:14:13;16.27;;;10.27;;
46455;SDS011;64052;47.466;9.094;2022-12-07T20:19:20;17.05;;;11.40;;
46455;SDS011;64052;47.466;9.094;2022-12-07T21:05:44;13.73;;;9.38;;
46455;SDS011;64052;47.466;9.094;2022-12-07T21:10:54;25.23;;;18.70;;
46455;SDS011;64052;47.466;9.094;2022-12-07T21:16:06;13.57;;;9.73;;
46455;SDS011;64052;47.466;9.094;2022-12-07T21:21:14;13.13;;;8.20;;
46455;SDS011;64052;47.466;9.094;2022-12-07T21:26:21;16.45;;;9.73;;
46455;SDS011;64052;47.466;9.094;2022-12-07T21:31:24;33.05;;;20.30;;
46455;SDS011;64052;47.466;9.094;2022-12-07T21:36:27;16.17;;;10.45;;
46455;SDS011;64052;47.466;9.094;2022-12-07T21:41:29;14.85;;;9.10;;
46455;SDS011;64052;47.466;9.094;2022-12-07T21:46:33;14.50;;;9.35;;
46455;SDS011;64052;47.466;9.094;2022-12-07T21:51:36;13.43;;;8.77;;
46455;SDS011;64052;47.466;9.094;2022-12-07T21:56:39;15.65;;;9.10;;
46455;SDS011;64052;47.466;9.094;2022-12-07T22:01:42;16.80;;;10.60;;
46455;SDS011;64052;47.466;9.094;2022-12-07T22:06:45;13.15;;;9.25;;
46455;SDS011;64052;47.466;9.094;2022-12-07T22:11:47;13.43;;;9.75;;
46455;SDS011;64052;47.466;9.094;2022-12-07T22:16:49;14.35;;;10.15;;
46455;SDS011;64052;47.466;9.094;2022-12-07T22:21:52;14.77;;;9.77;;
46455;SDS011;64052;47.466;9.094;2022-12-07T22:26:53;17.42;;;10.50;;
46455;SDS011;64052;47.466;9.094;2022-12-07T22:31:54;12.75;;;9.27;;
46455;SDS011;64052;47.466;9.094;2022-12-07T22:36:56;13.70;;;9.73;;
46455;SDS011;64052;47.466;9.094;2022-12-07T22:41:58;16.02;;;10.50;;
46455;SDS011;64052;47.466;9.094;2022-12-07T22:46:59;14.90;;;10.40;;
46455;SDS011;64052;47.466;9.094;2022-12-07T22:52:01;14.27;;;10.00;;
46455;SDS011;64052;47.466;9.094;2022-12-07T22:57:02;13.27;;;9.50;;
46455;SDS011;64052;47.466;9.094;2022-12-07T23:02:04;16.92;;;10.27;;
46455;SDS011;64052;47.466;9.094;2022-12-07T23:07:05;14.20;;;10.05;;
46455;SDS011;64052;47.466;9.094;2022-12-07T23:12:08;18.17;;;9.52;;
46455;SDS011;64052;47.466;9.094;2022-12-07T23:17:09;15.73;;;10.18;;
46455;SDS011;64052;47.466;9.094;2022-12-07T23:22:11;14.52;;;9.30;;
46455;SDS011;64052;47.466;9.094;2022-12-07T23:27:13;16.15;;;9.32;;
46455;SDS011;64052;47.466;9.094;2022-12-07T23:32:14;13.10;;;9.20;;
46455;SDS011;64052;47.466;9.094;2022-12-07T23:37:16;15.95;;;9.93;;
46455;SDS011;64052;47.466;9.094;2022-12-07T23:42:17;14.15;;;10.25;;
46455;SDS011;64052;47.466;9.094;2022-12-07T23:47:19;16.80;;;11.00;;
46455;SDS011;64052;47.466;9.094;2022-12-07T23:52:20;16.90;;;9.10;;
46455;SDS011;64052;47.466;9.094;2022-12-07T23:57:22;14.20;;;9.93;;
